sensor_id;sensor_type;location;lat;lon;timestamp;temperature;humidity
78733;DHT22;68056;52.530;5.454;2023-05-01T00:02:18;10.40;63.70
78733;DHT22;68056;52.530;5.454;2023-05-01T00:04:43;10.40;63.70
78733;DHT22;68056;52.530;5.454;2023-05-01T00:07:09;10.40;63.70
78733;DHT22;68056;52.530;5.454;2023-05-01T00:09:34;10.40;63.80
78733;DHT22;68056;52.530;5.454;2023-05-01T00:12:00;10.40;63.80
78733;DHT22;68056;52.530;5.454;2023-05-01T00:14:27;10.30;63.70
78733;DHT22;68056;52.530;5.454;2023-05-01T00:16:53;10.30;63.80
78733;DHT22;68056;52.530;5.454;2023-05-01T00:19:19;10.20;63.80
78733;DHT22;68056;52.530;5.454;2023-05-01T00:21:48;10.20;63.90
78733;DHT22;68056;52.530;5.454;2023-05-01T00:24:15;10.20;63.90
78733;DHT22;68056;52.530;5.454;2023-05-01T00:26:41;10.10;63.90
78733;DHT22;68056;52.530;5.454;2023-05-01T00:29:07;10.10;64.00
78733;DHT22;68056;52.530;5.454;2023-05-01T00:31:33;10.00;64.00
78733;DHT22;68056;52.530;5.454;2023-05-01T00:33:58;10.00;64.10
78733;DHT22;68056;52.530;5.454;2023-05-01T00:36:24;10.00;64.00
78733;DHT22;68056;52.530;5.454;2023-05-01T00:38:50;10.00;64.10
78733;DHT22;68056;52.530;5.454;2023-05-01T00:41:15;10.00;64.10
78733;DHT22;68056;52.530;5.454;2023-05-01T00:43:41;9.90;64.10
78733;DHT22;68056;52.530;5.454;2023-05-01T00:46:07;9.80;64.20
78733;DHT22;68056;52.530;5.454;2023-05-01T00:48:34;9.70;64.20
78733;DHT22;68056;52.530;5.454;2023-05-01T00:51:00;9.70;64.30
78733;DHT22;68056;52.530;5.454;2023-05-01T00:53:28;9.70;64.30
78733;DHT22;68056;52.530;5.454;2023-05-01T00:55:56;9.60;64.30
78733;DHT22;68056;52.530;5.454;2023-05-01T00:58:22;9.60;64.30
78733;DHT22;68056;52.530;5.454;2023-05-01T01:00:51;9.60;64.40
78733;DHT22;68056;52.530;5.454;2023-05-01T01:03:17;9.60;64.40
78733;DHT22;68056;52.530;5.454;2023-05-01T01:05:52;9.60;64.30
78733;DHT22;68056;52.530;5.454;2023-05-01T01:08:27;9.60;64.30
78733;DHT22;68056;52.530;5.454;2023-05-01T01:11:13;9.60;64.30
78733;DHT22;68056;52.530;5.454;2023-05-01T01:22:11;9.40;64.50
78733;DHT22;68056;52.530;5.454;2023-05-01T01:30:25;9.20;64.50
78733;DHT22;68056;52.530;5.454;2023-05-01T01:35:56;9.20;64.60
78733;DHT22;68056;52.530;5.454;2023-05-01T01:38:56;9.20;64.60
78733;DHT22;68056;52.530;5.454;2023-05-01T01:41:30;9.20;64.60
78733;DHT22;68056;52.530;5.454;2023-05-01T01:44:04;9.00;64.60
78733;DHT22;68056;52.530;5.454;2023-05-01T01:46:35;9.00;64.60
78733;DHT22;68056;52.530;5.454;2023-05-01T01:49:05;9.00;64.60
78733;DHT22;68056;52.530;5.454;2023-05-01T01:51:33;9.00;64.60
78733;DHT22;68056;52.530;5.454;2023-05-01T01:54:01;9.00;64.60
78733;DHT22;68056;52.530;5.454;2023-05-01T01:56:28;9.00;64.60
78733;DHT22;68056;52.530;5.454;2023-05-01T01:58:56;9.00;64.60
78733;DHT22;68056;52.530;5.454;2023-05-01T02:01:23;9.00;64.70
78733;DHT22;68056;52.530;5.454;2023-05-01T02:03:49;9.00;64.80
78733;DHT22;68056;52.530;5.454;2023-05-01T02:06:16;9.00;64.70
78733;DHT22;68056;52.530;5.454;2023-05-01T02:08:43;9.00;64.70
78733;DHT22;68056;52.530;5.454;2023-05-01T02:11:12;9.00;64.80
78733;DHT22;68056;52.530;5.454;2023-05-01T02:13:39;9.00;64.80
78733;DHT22;68056;52.530;5.454;2023-05-01T02:16:06;9.00;64.80
78733;DHT22;68056;52.530;5.454;2023-05-01T02:18:33;8.90;64.90
78733;DHT22;68056;52.530;5.454;2023-05-01T02:21:00;8.90;64.80
78733;DHT22;68056;52.530;5.454;2023-05-01T02:23:27;8.90;64.80
78733;DHT22;68056;52.530;5.454;2023-05-01T02:25:55;8.80;64.70
78733;DHT22;68056;52.530;5.454;2023-05-01T02:28:22;8.80;64.70
78733;DHT22;68056;52.530;5.454;2023-05-01T02:30:48;8.80;64.70
78733;DHT22;68056;52.530;5.454;2023-05-01T02:33:13;8.70;64.70
78733;DHT22;68056;52.530;5.454;2023-05-01T02:35:40;8.70;64.70
78733;DHT22;68056;52.530;5.454;2023-05-01T02:38:06;8.60;64.70
78733;DHT22;68056;52.530;5.454;2023-05-01T02:40:33;8.60;64.80
78733;DHT22;68056;52.530;5.454;2023-05-01T02:43:04;8.60;64.80
78733;DHT22;68056;52.530;5.454;2023-05-01T02:45:31;8.60;64.90
78733;DHT22;68056;52.530;5.454;2023-05-01T02:48:01;8.60;64.80
78733;DHT22;68056;52.530;5.454;2023-05-01T02:50:29;8.60;64.90
78733;DHT22;68056;52.530;5.454;2023-05-01T02:52:55;8.60;64.90
78733;DHT22;68056;52.530;5.454;2023-05-01T02:55:22;8.60;65.00
78733;DHT22;68056;52.530;5.454;2023-05-01T02:57:50;8.60;65.00
78733;DHT22;68056;52.530;5.454;2023-05-01T03:00:16;8.60;65.00
78733;DHT22;68056;52.530;5.454;2023-05-01T03:02:42;8.60;65.00
78733;DHT22;68056;52.530;5.454;2023-05-01T03:05:08;8.60;65.00
78733;DHT22;68056;52.530;5.454;2023-05-01T03:07:33;8.60;65.10
78733;DHT22;68056;52.530;5.454;2023-05-01T03:10:05;8.50;65.00
78733;DHT22;68056;52.530;5.454;2023-05-01T03:12:30;8.50;65.10
78733;DHT22;68056;52.530;5.454;2023-05-01T03:14:56;8.40;65.10
78733;DHT22;68056;52.530;5.454;2023-05-01T03:17:23;8.40;65.20
78733;DHT22;68056;52.530;5.454;2023-05-01T03:19:49;8.40;65.30
78733;DHT22;68056;52.530;5.454;2023-05-01T03:22:15;8.30;65.30
78733;DHT22;68056;52.530;5.454;2023-05-01T03:24:40;8.30;65.30
78733;DHT22;68056;52.530;5.454;2023-05-01T03:27:06;8.30;65.30
78733;DHT22;68056;52.530;5.454;2023-05-01T03:29:32;8.30;65.30
78733;DHT22;68056;52.530;5.454;2023-05-01T03:31:59;8.30;65.30
78733;DHT22;68056;52.530;5.454;2023-05-01T03:34:24;8.20;65.40
78733;DHT22;68056;52.530;5.454;2023-05-01T03:36:51;8.20;65.40
78733;DHT22;68056;52.530;5.454;2023-05-01T03:39:16;8.20;65.50
78733;DHT22;68056;52.530;5.454;2023-05-01T03:41:42;8.10;65.50
78733;DHT22;68056;52.530;5.454;2023-05-01T03:44:07;8.10;65.60
78733;DHT22;68056;52.530;5.454;2023-05-01T03:46:33;8.00;65.70
78733;DHT22;68056;52.530;5.454;2023-05-01T03:48:58;8.00;65.70
78733;DHT22;68056;52.530;5.454;2023-05-01T03:51:24;8.00;65.80
78733;DHT22;68056;52.530;5.454;2023-05-01T03:53:51;8.00;65.90
78733;DHT22;68056;52.530;5.454;2023-05-01T03:56:17;8.00;65.80
78733;DHT22;68056;52.530;5.454;2023-05-01T03:58:43;7.90;65.80
78733;DHT22;68056;52.530;5.454;2023-05-01T04:01:08;7.90;65.90
78733;DHT22;68056;52.530;5.454;2023-05-01T04:03:34;7.80;65.90
78733;DHT22;68056;52.530;5.454;2023-05-01T04:05:59;7.80;65.90
78733;DHT22;68056;52.530;5.454;2023-05-01T04:08:25;7.80;65.90
78733;DHT22;68056;52.530;5.454;2023-05-01T04:10:50;7.90;65.90
78733;DHT22;68056;52.530;5.454;2023-05-01T04:13:16;7.90;65.90
78733;DHT22;68056;52.530;5.454;2023-05-01T04:15:45;7.80;65.90
78733;DHT22;68056;52.530;5.454;2023-05-01T04:18:11;7.80;66.00
78733;DHT22;68056;52.530;5.454;2023-05-01T04:20:36;7.70;66.00
78733;DHT22;68056;52.530;5.454;2023-05-01T04:23:02;7.70;66.10
78733;DHT22;68056;52.530;5.454;2023-05-01T04:25:28;7.70;66.10
78733;DHT22;68056;52.530;5.454;2023-05-01T04:27:53;7.60;66.20
78733;DHT22;68056;52.530;5.454;2023-05-01T04:30:19;7.60;66.20
78733;DHT22;68056;52.530;5.454;2023-05-01T04:32:44;7.60;66.20
78733;DHT22;68056;52.530;5.454;2023-05-01T04:35:10;7.60;66.20
78733;DHT22;68056;52.530;5.454;2023-05-01T04:37:36;7.60;66.20
78733;DHT22;68056;52.530;5.454;2023-05-01T04:40:02;7.50;66.20
78733;DHT22;68056;52.530;5.454;2023-05-01T04:42:32;7.50;66.30
78733;DHT22;68056;52.530;5.454;2023-05-01T04:44:58;7.50;66.30
78733;DHT22;68056;52.530;5.454;2023-05-01T04:47:26;7.60;66.30
78733;DHT22;68056;52.530;5.454;2023-05-01T04:49:53;7.60;66.20
78733;DHT22;68056;52.530;5.454;2023-05-01T04:52:18;7.70;66.20
78733;DHT22;68056;52.530;5.454;2023-05-01T04:54:44;7.80;66.20
78733;DHT22;68056;52.530;5.454;2023-05-01T04:57:10;7.80;66.20
78733;DHT22;68056;52.530;5.454;2023-05-01T04:59:35;7.80;66.10
78733;DHT22;68056;52.530;5.454;2023-05-01T05:02:01;7.80;66.20
78733;DHT22;68056;52.530;5.454;2023-05-01T05:04:26;7.80;66.20
78733;DHT22;68056;52.530;5.454;2023-05-01T05:06:52;7.80;66.30
78733;DHT22;68056;52.530;5.454;2023-05-01T05:09:18;7.80;66.40
78733;DHT22;68056;52.530;5.454;2023-05-01T05:11:43;7.80;66.40
78733;DHT22;68056;52.530;5.454;2023-05-01T05:14:09;7.80;66.40
78733;DHT22;68056;52.530;5.454;2023-05-01T05:16:35;7.90;66.20
78733;DHT22;68056;52.530;5.454;2023-05-01T05:19:00;8.00;66.20
78733;DHT22;68056;52.530;5.454;2023-05-01T05:21:26;8.00;66.20
78733;DHT22;68056;52.530;5.454;2023-05-01T05:23:51;8.00;66.20
78733;DHT22;68056;52.530;5.454;2023-05-01T05:26:17;8.10;66.20
78733;DHT22;68056;52.530;5.454;2023-05-01T05:28:43;8.10;66.20
78733;DHT22;68056;52.530;5.454;2023-05-01T05:31:08;8.10;66.20
78733;DHT22;68056;52.530;5.454;2023-05-01T05:33:34;8.20;66.20
78733;DHT22;68056;52.530;5.454;2023-05-01T05:36:02;8.30;66.20
78733;DHT22;68056;52.530;5.454;2023-05-01T05:38:28;8.30;66.10
78733;DHT22;68056;52.530;5.454;2023-05-01T05:40:53;8.40;66.10
78733;DHT22;68056;52.530;5.454;2023-05-01T05:43:19;8.50;66.00
78733;DHT22;68056;52.530;5.454;2023-05-01T05:45:45;8.60;66.00
78733;DHT22;68056;52.530;5.454;2023-05-01T05:48:11;8.80;65.90
78733;DHT22;68056;52.530;5.454;2023-05-01T05:50:36;9.00;65.80
78733;DHT22;68056;52.530;5.454;2023-05-01T05:53:03;9.20;65.70
78733;DHT22;68056;52.530;5.454;2023-05-01T05:55:29;9.40;65.40
78733;DHT22;68056;52.530;5.454;2023-05-01T05:57:57;9.60;65.20
78733;DHT22;68056;52.530;5.454;2023-05-01T06:00:23;9.80;65.00
78733;DHT22;68056;52.530;5.454;2023-05-01T06:02:48;10.00;64.80
78733;DHT22;68056;52.530;5.454;2023-05-01T06:05:14;10.00;64.60
78733;DHT22;68056;52.530;5.454;2023-05-01T06:07:39;10.20;64.50
78733;DHT22;68056;52.530;5.454;2023-05-01T06:10:05;10.30;64.40
78733;DHT22;68056;52.530;5.454;2023-05-01T06:12:31;10.40;64.30
78733;DHT22;68056;52.530;5.454;2023-05-01T06:14:57;10.50;64.20
78733;DHT22;68056;52.530;5.454;2023-05-01T06:17:24;10.70;64.00
78733;DHT22;68056;52.530;5.454;2023-05-01T06:19:50;10.80;63.90
78733;DHT22;68056;52.530;5.454;2023-05-01T06:22:19;10.90;63.70
78733;DHT22;68056;52.530;5.454;2023-05-01T06:24:44;11.00;63.50
78733;DHT22;68056;52.530;5.454;2023-05-01T06:27:11;11.10;63.40
78733;DHT22;68056;52.530;5.454;2023-05-01T06:29:37;11.20;63.20
78733;DHT22;68056;52.530;5.454;2023-05-01T06:32:02;11.30;63.00
78733;DHT22;68056;52.530;5.454;2023-05-01T06:34:28;11.40;62.90
78733;DHT22;68056;52.530;5.454;2023-05-01T06:36:54;11.40;62.70
78733;DHT22;68056;52.530;5.454;2023-05-01T06:39:20;11.50;62.60
78733;DHT22;68056;52.530;5.454;2023-05-01T06:41:46;11.60;62.50
78733;DHT22;68056;52.530;5.454;2023-05-01T06:44:12;11.80;62.50
78733;DHT22;68056;52.530;5.454;2023-05-01T06:46:38;12.00;62.40
78733;DHT22;68056;52.530;5.454;2023-05-01T06:49:03;12.20;62.10
78733;DHT22;68056;52.530;5.454;2023-05-01T06:51:29;12.30;61.70
78733;DHT22;68056;52.530;5.454;2023-05-01T06:53:55;12.40;61.60
78733;DHT22;68056;52.530;5.454;2023-05-01T06:56:21;12.50;61.50
78733;DHT22;68056;52.530;5.454;2023-05-01T06:58:47;12.50;61.40
78733;DHT22;68056;52.530;5.454;2023-05-01T07:01:12;12.70;61.10
78733;DHT22;68056;52.530;5.454;2023-05-01T07:03:38;13.00;60.90
78733;DHT22;68056;52.530;5.454;2023-05-01T07:06:03;13.20;60.70
78733;DHT22;68056;52.530;5.454;2023-05-01T07:08:29;13.50;60.30
78733;DHT22;68056;52.530;5.454;2023-05-01T07:10:55;13.80;60.20
78733;DHT22;68056;52.530;5.454;2023-05-01T07:13:20;14.10;60.00
78733;DHT22;68056;52.530;5.454;2023-05-01T07:15:46;14.40;59.70
78733;DHT22;68056;52.530;5.454;2023-05-01T07:18:12;14.60;59.60
78733;DHT22;68056;52.530;5.454;2023-05-01T07:20:38;14.80;59.40
78733;DHT22;68056;52.530;5.454;2023-05-01T07:23:03;14.80;59.20
78733;DHT22;68056;52.530;5.454;2023-05-01T07:25:29;14.70;59.00
78733;DHT22;68056;52.530;5.454;2023-05-01T07:27:55;14.70;59.00
78733;DHT22;68056;52.530;5.454;2023-05-01T07:30:20;14.80;58.90
78733;DHT22;68056;52.530;5.454;2023-05-01T07:32:46;15.00;58.70
78733;DHT22;68056;52.530;5.454;2023-05-01T07:35:12;15.00;58.60
78733;DHT22;68056;52.530;5.454;2023-05-01T07:37:37;15.20;58.30
78733;DHT22;68056;52.530;5.454;2023-05-01T07:40:03;15.30;58.20
78733;DHT22;68056;52.530;5.454;2023-05-01T07:42:29;15.30;58.20
78733;DHT22;68056;52.530;5.454;2023-05-01T07:44:55;15.30;58.00
78733;DHT22;68056;52.530;5.454;2023-05-01T07:47:20;15.30;58.00
78733;DHT22;68056;52.530;5.454;2023-05-01T07:49:46;15.30;58.00
78733;DHT22;68056;52.530;5.454;2023-05-01T07:52:11;15.30;58.00
78733;DHT22;68056;52.530;5.454;2023-05-01T07:54:37;15.30;58.30
78733;DHT22;68056;52.530;5.454;2023-05-01T07:57:05;15.30;58.60
78733;DHT22;68056;52.530;5.454;2023-05-01T07:59:30;15.20;58.90
78733;DHT22;68056;52.530;5.454;2023-05-01T08:01:56;15.20;59.00
78733;DHT22;68056;52.530;5.454;2023-05-01T08:04:22;15.10;59.20
78733;DHT22;68056;52.530;5.454;2023-05-01T08:06:49;15.20;59.40
78733;DHT22;68056;52.530;5.454;2023-05-01T08:09:15;15.10;59.30
78733;DHT22;68056;52.530;5.454;2023-05-01T08:11:40;15.10;59.40
78733;DHT22;68056;52.530;5.454;2023-05-01T08:14:06;15.10;59.60
78733;DHT22;68056;52.530;5.454;2023-05-01T08:16:33;15.00;59.50
78733;DHT22;68056;52.530;5.454;2023-05-01T08:18:59;15.00;59.50
78733;DHT22;68056;52.530;5.454;2023-05-01T08:21:24;15.00;59.50
78733;DHT22;68056;52.530;5.454;2023-05-01T08:23:50;15.10;59.50
78733;DHT22;68056;52.530;5.454;2023-05-01T08:26:16;15.20;59.40
78733;DHT22;68056;52.530;5.454;2023-05-01T08:28:42;15.20;59.30
78733;DHT22;68056;52.530;5.454;2023-05-01T08:31:07;15.30;59.30
78733;DHT22;68056;52.530;5.454;2023-05-01T08:33:33;15.30;59.30
78733;DHT22;68056;52.530;5.454;2023-05-01T08:35:59;15.40;59.30
78733;DHT22;68056;52.530;5.454;2023-05-01T08:38:24;15.40;59.40
78733;DHT22;68056;52.530;5.454;2023-05-01T08:40:51;15.50;59.50
78733;DHT22;68056;52.530;5.454;2023-05-01T08:43:18;15.50;59.50
78733;DHT22;68056;52.530;5.454;2023-05-01T08:45:46;15.60;59.40
78733;DHT22;68056;52.530;5.454;2023-05-01T08:48:12;15.60;59.30
78733;DHT22;68056;52.530;5.454;2023-05-01T08:50:45;15.60;59.30
78733;DHT22;68056;52.530;5.454;2023-05-01T08:53:10;15.80;59.40
78733;DHT22;68056;52.530;5.454;2023-05-01T08:55:37;15.90;59.40
78733;DHT22;68056;52.530;5.454;2023-05-01T08:58:05;16.00;59.30
78733;DHT22;68056;52.530;5.454;2023-05-01T09:00:31;16.10;59.30
78733;DHT22;68056;52.530;5.454;2023-05-01T09:03:00;16.40;59.20
78733;DHT22;68056;52.530;5.454;2023-05-01T09:05:27;16.50;59.00
78733;DHT22;68056;52.530;5.454;2023-05-01T09:07:53;16.80;58.70
78733;DHT22;68056;52.530;5.454;2023-05-01T09:10:19;16.90;58.30
78733;DHT22;68056;52.530;5.454;2023-05-01T09:12:48;17.00;58.20
78733;DHT22;68056;52.530;5.454;2023-05-01T09:15:17;17.30;57.80
78733;DHT22;68056;52.530;5.454;2023-05-01T09:17:43;17.50;57.30
78733;DHT22;68056;52.530;5.454;2023-05-01T09:20:10;17.50;56.70
78733;DHT22;68056;52.530;5.454;2023-05-01T09:22:35;17.70;56.20
78733;DHT22;68056;52.530;5.454;2023-05-01T09:25:01;17.90;55.80
78733;DHT22;68056;52.530;5.454;2023-05-01T09:27:33;18.10;55.60
78733;DHT22;68056;52.530;5.454;2023-05-01T09:29:59;18.30;55.30
78733;DHT22;68056;52.530;5.454;2023-05-01T09:32:26;18.60;54.80
78733;DHT22;68056;52.530;5.454;2023-05-01T09:35:11;18.80;54.40
78733;DHT22;68056;52.530;5.454;2023-05-01T09:37:38;18.90;54.30
78733;DHT22;68056;52.530;5.454;2023-05-01T09:42:30;19.40;53.60
78733;DHT22;68056;52.530;5.454;2023-05-01T09:45:33;19.60;53.40
78733;DHT22;68056;52.530;5.454;2023-05-01T09:48:06;19.70;53.30
78733;DHT22;68056;52.530;5.454;2023-05-01T09:50:34;19.70;53.00
78733;DHT22;68056;52.530;5.454;2023-05-01T09:53:01;19.70;53.00
78733;DHT22;68056;52.530;5.454;2023-05-01T09:55:29;19.90;52.80
78733;DHT22;68056;52.530;5.454;2023-05-01T09:57:54;20.00;52.80
78733;DHT22;68056;52.530;5.454;2023-05-01T10:00:20;20.10;52.50
78733;DHT22;68056;52.530;5.454;2023-05-01T10:02:48;20.10;52.40
78733;DHT22;68056;52.530;5.454;2023-05-01T10:05:14;20.10;52.40
78733;DHT22;68056;52.530;5.454;2023-05-01T10:10:22;20.20;52.60
78733;DHT22;68056;52.530;5.454;2023-05-01T10:12:48;20.20;52.70
78733;DHT22;68056;52.530;5.454;2023-05-01T10:40:45;19.50;51.40
78733;DHT22;68056;52.530;5.454;2023-05-01T10:43:22;19.50;51.80
78733;DHT22;68056;52.530;5.454;2023-05-01T10:45:51;19.50;52.20
78733;DHT22;68056;52.530;5.454;2023-05-01T10:51:22;19.40;52.70
78733;DHT22;68056;52.530;5.454;2023-05-01T10:56:40;19.50;53.20
78733;DHT22;68056;52.530;5.454;2023-05-01T10:59:07;19.70;53.20
78733;DHT22;68056;52.530;5.454;2023-05-01T11:01:37;19.70;53.30
78733;DHT22;68056;52.530;5.454;2023-05-01T11:15:10;19.70;52.30
78733;DHT22;68056;52.530;5.454;2023-05-01T11:20:09;19.80;53.00
78733;DHT22;68056;52.530;5.454;2023-05-01T11:22:36;20.00;52.70
78733;DHT22;68056;52.530;5.454;2023-05-01T11:25:03;20.10;52.10
78733;DHT22;68056;52.530;5.454;2023-05-01T11:27:30;20.40;51.70
78733;DHT22;68056;52.530;5.454;2023-05-01T11:29:57;20.70;51.00
78733;DHT22;68056;52.530;5.454;2023-05-01T11:32:26;21.00;50.40
78733;DHT22;68056;52.530;5.454;2023-05-01T11:34:52;21.00;50.00
78733;DHT22;68056;52.530;5.454;2023-05-01T11:37:19;20.70;50.50
78733;DHT22;68056;52.530;5.454;2023-05-01T11:39:49;20.50;51.10
78733;DHT22;68056;52.530;5.454;2023-05-01T11:42:14;20.40;51.50
78733;DHT22;68056;52.530;5.454;2023-05-01T11:44:40;20.30;51.80
78733;DHT22;68056;52.530;5.454;2023-05-01T11:47:05;20.10;52.10
78733;DHT22;68056;52.530;5.454;2023-05-01T11:49:34;20.00;52.40
78733;DHT22;68056;52.530;5.454;2023-05-01T11:52:00;20.00;52.70
78733;DHT22;68056;52.530;5.454;2023-05-01T11:54:25;20.30;53.00
78733;DHT22;68056;52.530;5.454;2023-05-01T11:56:58;20.40;53.20
78733;DHT22;68056;52.530;5.454;2023-05-01T11:59:25;20.60;53.00
78733;DHT22;68056;52.530;5.454;2023-05-01T12:01:51;20.70;52.90
78733;DHT22;68056;52.530;5.454;2023-05-01T12:04:25;20.80;52.70
78733;DHT22;68056;52.530;5.454;2023-05-01T12:06:51;20.80;52.70
78733;DHT22;68056;52.530;5.454;2023-05-01T12:09:22;20.80;52.80
78733;DHT22;68056;52.530;5.454;2023-05-01T12:11:50;20.80;53.00
78733;DHT22;68056;52.530;5.454;2023-05-01T12:14:16;20.60;53.30
78733;DHT22;68056;52.530;5.454;2023-05-01T12:16:43;20.40;53.60
78733;DHT22;68056;52.530;5.454;2023-05-01T12:19:12;20.20;53.80
78733;DHT22;68056;52.530;5.454;2023-05-01T12:21:37;19.90;54.00
78733;DHT22;68056;52.530;5.454;2023-05-01T12:24:10;19.60;54.30
78733;DHT22;68056;52.530;5.454;2023-05-01T12:26:36;19.20;54.70
78733;DHT22;68056;52.530;5.454;2023-05-01T12:29:04;18.90;55.30
78733;DHT22;68056;52.530;5.454;2023-05-01T12:31:31;18.70;55.70
78733;DHT22;68056;52.530;5.454;2023-05-01T12:33:58;18.70;55.90
78733;DHT22;68056;52.530;5.454;2023-05-01T12:36:26;18.60;56.00
78733;DHT22;68056;52.530;5.454;2023-05-01T12:39:09;18.60;56.20
78733;DHT22;68056;52.530;5.454;2023-05-01T12:41:37;18.50;56.20
78733;DHT22;68056;52.530;5.454;2023-05-01T12:44:20;18.40;56.30
78733;DHT22;68056;52.530;5.454;2023-05-01T12:47:01;18.20;56.40
78733;DHT22;68056;52.530;5.454;2023-05-01T12:49:28;18.00;56.80
78733;DHT22;68056;52.530;5.454;2023-05-01T12:51:56;18.00;56.90
78733;DHT22;68056;52.530;5.454;2023-05-01T12:54:23;18.10;56.90
78733;DHT22;68056;52.530;5.454;2023-05-01T12:56:50;18.10;56.80
78733;DHT22;68056;52.530;5.454;2023-05-01T12:59:24;18.10;56.80
78733;DHT22;68056;52.530;5.454;2023-05-01T13:02:10;18.10;56.70
78733;DHT22;68056;52.530;5.454;2023-05-01T13:04:36;18.00;56.80
78733;DHT22;68056;52.530;5.454;2023-05-01T13:07:13;17.90;57.00
78733;DHT22;68056;52.530;5.454;2023-05-01T13:09:59;17.90;56.90
78733;DHT22;68056;52.530;5.454;2023-05-01T13:12:26;17.80;56.90
78733;DHT22;68056;52.530;5.454;2023-05-01T13:14:52;17.80;57.00
78733;DHT22;68056;52.530;5.454;2023-05-01T13:17:26;17.90;57.00
78733;DHT22;68056;52.530;5.454;2023-05-01T13:19:56;17.90;56.80
78733;DHT22;68056;52.530;5.454;2023-05-01T13:22:35;17.90;56.90
78733;DHT22;68056;52.530;5.454;2023-05-01T13:25:24;17.90;56.80
78733;DHT22;68056;52.530;5.454;2023-05-01T13:27:50;17.90;56.80
78733;DHT22;68056;52.530;5.454;2023-05-01T13:30:31;18.00;56.90
78733;DHT22;68056;52.530;5.454;2023-05-01T13:32:57;18.00;56.80
78733;DHT22;68056;52.530;5.454;2023-05-01T13:35:23;18.10;56.60
78733;DHT22;68056;52.530;5.454;2023-05-01T13:37:52;18.20;56.50
78733;DHT22;68056;52.530;5.454;2023-05-01T13:40:19;18.10;56.50
78733;DHT22;68056;52.530;5.454;2023-05-01T13:42:45;18.10;56.60
78733;DHT22;68056;52.530;5.454;2023-05-01T13:45:13;18.10;56.70
78733;DHT22;68056;52.530;5.454;2023-05-01T13:47:42;18.10;56.70
78733;DHT22;68056;52.530;5.454;2023-05-01T13:50:09;18.00;56.70
78733;DHT22;68056;52.530;5.454;2023-05-01T13:52:41;18.00;56.70
78733;DHT22;68056;52.530;5.454;2023-05-01T13:55:11;18.00;56.70
78733;DHT22;68056;52.530;5.454;2023-05-01T13:57:37;17.90;56.80
78733;DHT22;68056;52.530;5.454;2023-05-01T14:00:07;17.80;56.90
78733;DHT22;68056;52.530;5.454;2023-05-01T14:02:33;17.80;57.00
78733;DHT22;68056;52.530;5.454;2023-05-01T14:05:01;17.80;57.20
78733;DHT22;68056;52.530;5.454;2023-05-01T14:07:33;17.60;57.40
78733;DHT22;68056;52.530;5.454;2023-05-01T14:10:07;17.50;57.60
78733;DHT22;68056;52.530;5.454;2023-05-01T14:12:33;17.50;57.90
78733;DHT22;68056;52.530;5.454;2023-05-01T14:14:59;17.50;58.00
78733;DHT22;68056;52.530;5.454;2023-05-01T14:17:35;17.50;58.10
78733;DHT22;68056;52.530;5.454;2023-05-01T14:20:02;17.50;58.30
78733;DHT22;68056;52.530;5.454;2023-05-01T14:22:38;17.50;58.30
78733;DHT22;68056;52.530;5.454;2023-05-01T14:25:05;17.50;58.30
78733;DHT22;68056;52.530;5.454;2023-05-01T14:27:32;17.50;58.20
78733;DHT22;68056;52.530;5.454;2023-05-01T14:29:57;17.60;58.20
78733;DHT22;68056;52.530;5.454;2023-05-01T14:32:24;17.70;58.00
78733;DHT22;68056;52.530;5.454;2023-05-01T14:34:50;17.80;57.90
78733;DHT22;68056;52.530;5.454;2023-05-01T14:37:17;17.80;57.80
78733;DHT22;68056;52.530;5.454;2023-05-01T14:39:42;17.80;57.70
78733;DHT22;68056;52.530;5.454;2023-05-01T14:42:08;17.80;57.50
78733;DHT22;68056;52.530;5.454;2023-05-01T14:44:38;18.00;57.40
78733;DHT22;68056;52.530;5.454;2023-05-01T14:47:07;18.10;57.30
78733;DHT22;68056;52.530;5.454;2023-05-01T14:49:33;18.30;57.20
78733;DHT22;68056;52.530;5.454;2023-05-01T14:52:00;18.50;57.00
78733;DHT22;68056;52.530;5.454;2023-05-01T14:54:25;18.60;56.80
78733;DHT22;68056;52.530;5.454;2023-05-01T14:56:51;18.50;56.80
78733;DHT22;68056;52.530;5.454;2023-05-01T14:59:17;18.40;56.90
78733;DHT22;68056;52.530;5.454;2023-05-01T15:01:42;18.30;57.10
78733;DHT22;68056;52.530;5.454;2023-05-01T15:04:08;18.30;57.30
78733;DHT22;68056;52.530;5.454;2023-05-01T15:06:35;18.30;57.30
78733;DHT22;68056;52.530;5.454;2023-05-01T15:09:02;18.30;57.20
78733;DHT22;68056;52.530;5.454;2023-05-01T15:11:29;18.30;57.20
78733;DHT22;68056;52.530;5.454;2023-05-01T15:13:55;18.40;57.40
78733;DHT22;68056;52.530;5.454;2023-05-01T15:16:21;18.70;57.10
78733;DHT22;68056;52.530;5.454;2023-05-01T15:18:46;18.90;56.70
78733;DHT22;68056;52.530;5.454;2023-05-01T15:21:12;18.90;56.60
78733;DHT22;68056;52.530;5.454;2023-05-01T15:23:39;18.90;56.70
78733;DHT22;68056;52.530;5.454;2023-05-01T15:26:09;18.90;56.80
78733;DHT22;68056;52.530;5.454;2023-05-01T15:28:34;18.80;56.80
78733;DHT22;68056;52.530;5.454;2023-05-01T15:31:00;18.70;57.00
78733;DHT22;68056;52.530;5.454;2023-05-01T15:33:26;18.60;57.10
78733;DHT22;68056;52.530;5.454;2023-05-01T15:35:51;18.50;57.20
78733;DHT22;68056;52.530;5.454;2023-05-01T15:38:18;18.40;57.50
78733;DHT22;68056;52.530;5.454;2023-05-01T15:40:45;18.20;57.60
78733;DHT22;68056;52.530;5.454;2023-05-01T15:43:14;18.10;57.90
78733;DHT22;68056;52.530;5.454;2023-05-01T15:45:39;18.10;58.00
78733;DHT22;68056;52.530;5.454;2023-05-01T15:48:07;18.10;58.00
78733;DHT22;68056;52.530;5.454;2023-05-01T15:50:33;18.10;58.00
78733;DHT22;68056;52.530;5.454;2023-05-01T15:52:59;18.00;58.10
78733;DHT22;68056;52.530;5.454;2023-05-01T15:55:24;17.80;58.10
78733;DHT22;68056;52.530;5.454;2023-05-01T15:57:50;17.80;58.20
78733;DHT22;68056;52.530;5.454;2023-05-01T16:00:16;17.60;58.20
78733;DHT22;68056;52.530;5.454;2023-05-01T16:02:42;17.60;58.30
78733;DHT22;68056;52.530;5.454;2023-05-01T16:05:09;17.50;58.40
78733;DHT22;68056;52.530;5.454;2023-05-01T16:07:35;17.40;58.60
78733;DHT22;68056;52.530;5.454;2023-05-01T16:10:00;17.30;58.80
78733;DHT22;68056;52.530;5.454;2023-05-01T16:12:27;17.20;59.00
78733;DHT22;68056;52.530;5.454;2023-05-01T16:14:53;17.10;59.10
78733;DHT22;68056;52.530;5.454;2023-05-01T16:17:19;17.00;59.20
78733;DHT22;68056;52.530;5.454;2023-05-01T16:19:45;17.00;59.20
78733;DHT22;68056;52.530;5.454;2023-05-01T16:22:14;16.90;59.40
78733;DHT22;68056;52.530;5.454;2023-05-01T16:24:40;16.90;59.50
78733;DHT22;68056;52.530;5.454;2023-05-01T16:27:06;16.90;59.60
78733;DHT22;68056;52.530;5.454;2023-05-01T16:29:33;17.00;59.50
78733;DHT22;68056;52.530;5.454;2023-05-01T16:31:58;17.00;59.40
78733;DHT22;68056;52.530;5.454;2023-05-01T16:34:25;17.00;59.40
78733;DHT22;68056;52.530;5.454;2023-05-01T16:36:51;17.00;59.40
78733;DHT22;68056;52.530;5.454;2023-05-01T16:39:19;17.00;59.30
78733;DHT22;68056;52.530;5.454;2023-05-01T16:41:47;17.00;59.30
78733;DHT22;68056;52.530;5.454;2023-05-01T16:44:13;16.90;59.30